createdAt,value
2022-08-10T00:01:41.263Z,17.866821
2022-08-10T00:05:06.609Z,17.776184
2022-08-10T00:08:32.007Z,17.675476
2022-08-10T00:11:57.382Z,17.564697
2022-08-10T00:15:44.239Z,17.312927
2022-08-10T00:18:48.119Z,17.071228
2022-08-10T00:22:16.775Z,16.84967
2022-08-10T00:25:38.934Z,16.698608
2022-08-10T00:29:04.318Z,16.517334
2022-08-10T00:32:29.712Z,16.33606
2022-08-10T00:35:55.077Z,16.235352
2022-08-10T00:39:20.594Z,16.195068
2022-08-10T00:42:45.911Z,16.09436
2022-08-10T00:46:11.333Z,16.013794
2022-08-10T00:49:36.682Z,15.862732
2022-08-10T00:53:02.072Z,15.671387
2022-08-10T00:56:35.680Z,15.469971
2022-08-10T00:59:57.534Z,15.409546
2022-08-10T01:03:18.330Z,15.349121
2022-08-10T01:06:43.688Z,15.349121
2022-08-10T01:10:09.032Z,15.379333
2022-08-10T01:13:34.371Z,15.429688
2022-08-10T01:16:59.762Z,15.389404
2022-08-10T01:20:27.377Z,15.359192
2022-08-10T01:23:50.489Z,15.33905
2022-08-10T01:27:15.808Z,15.318909
2022-08-10T01:30:41.179Z,15.288696
2022-08-10T01:34:06.586Z,15.278625
2022-08-10T01:37:31.939Z,15.198059
2022-08-10T01:40:57.341Z,15.157776
2022-08-10T01:44:22.711Z,15.08728
2022-08-10T01:47:48.076Z,15.067139
2022-08-10T01:51:13.424Z,15.016785
2022-08-10T01:54:38.799Z,14.936218
2022-08-10T01:58:04.125Z,14.855652
2022-08-10T02:01:29.519Z,14.825439
2022-08-10T02:04:54.839Z,14.754944
2022-08-10T02:08:20.219Z,14.644165
2022-08-10T02:11:56.217Z,14.543457
2022-08-10T02:15:10.896Z,14.58374
2022-08-10T02:18:36.306Z,14.503174
2022-08-10T02:22:34.772Z,14.422607
2022-08-10T02:25:40.413Z,14.321899
2022-08-10T02:28:52.402Z,14.281616
2022-08-10T02:32:18.559Z,14.281616
2022-08-10T02:35:53.988Z,14.321899
2022-08-10T02:39:08.520Z,14.33197
2022-08-10T02:45:08.392Z,14.372253
2022-08-10T02:45:59.172Z,14.372253
2022-08-10T02:49:24.557Z,14.472961
2022-08-10T02:52:49.941Z,14.553528
2022-08-10T02:56:15.325Z,14.654236
2022-08-10T02:59:40.651Z,14.765015
2022-08-10T03:03:05.994Z,14.906006
2022-08-10T03:06:31.321Z,15.026855
2022-08-10T03:09:56.651Z,15.167847
2022-08-10T03:13:22.029Z,15.137634
2022-08-10T03:16:47.338Z,15.157776
2022-08-10T03:20:36.318Z,15.067139
2022-08-10T03:23:38.096Z,14.986572
2022-08-10T03:27:03.420Z,14.916077
2022-08-10T03:30:33.163Z,14.83551
2022-08-10T03:33:54.133Z,14.805298
2022-08-10T03:37:19.667Z,14.825439
2022-08-10T03:40:46.689Z,14.765015
2022-08-10T03:44:10.415Z,14.765015
2022-08-10T03:47:35.770Z,14.694519
2022-08-10T03:51:01.232Z,14.58374
2022-08-10T03:54:26.579Z,14.462891
2022-08-10T03:57:51.970Z,14.432678
2022-08-10T04:01:17.340Z,14.503174
2022-08-10T04:04:42.688Z,14.58374
2022-08-10T04:08:08.240Z,14.684448
2022-08-10T04:11:34.104Z,14.765015
2022-08-10T04:14:59.446Z,14.765015
2022-08-10T04:18:24.769Z,14.765015
2022-08-10T04:21:50.136Z,14.775085
2022-08-10T04:25:15.434Z,14.825439
2022-08-10T04:28:40.764Z,14.825439
2022-08-10T04:32:06.118Z,14.825439
2022-08-10T04:35:31.428Z,14.875793
2022-08-10T04:38:56.782Z,15.006714
2022-08-10T04:42:22.105Z,15.067139
2022-08-10T04:45:51.634Z,15.127563
2022-08-10T04:49:40.337Z,15.167847
2022-08-10T04:52:38.140Z,15.228271
2022-08-10T04:56:03.527Z,15.228271
2022-08-10T04:59:28.843Z,15.268555
2022-08-10T05:02:54.194Z,15.288696
2022-08-10T05:06:19.509Z,15.308838
2022-08-10T05:10:00.658Z,15.318909
2022-08-10T05:13:10.173Z,15.318909
2022-08-10T05:16:35.522Z,15.318909
2022-08-10T05:20:02.505Z,15.359192
2022-08-10T05:23:26.198Z,15.359192
2022-08-10T05:26:55.428Z,15.379333
2022-08-10T05:30:16.858Z,15.308838
2022-08-10T05:33:42.178Z,15.33905
2022-08-10T05:37:07.533Z,15.349121
2022-08-10T05:40:32.878Z,15.409546
2022-08-10T05:43:58.267Z,15.500183
2022-08-10T05:47:23.597Z,15.641174
2022-08-10T05:50:49.053Z,15.892944
2022-08-10T05:54:15.111Z,16.124573
2022-08-10T05:57:40.455Z,16.477051
2022-08-10T06:01:05.838Z,16.889954
2022-08-10T06:04:31.127Z,17.262573
2022-08-10T06:07:56.648Z,17.655334
2022-08-10T06:12:24.853Z,18.048096
2022-08-10T06:14:48.475Z,18.299866
2022-08-10T06:18:12.414Z,18.501282
2022-08-10T06:21:37.734Z,18.521423
2022-08-10T06:25:51.340Z,18.60199
2022-08-10T06:28:28.366Z,18.662415
2022-08-10T06:31:53.630Z,18.904114
2022-08-10T06:35:18.891Z,19.155884
2022-08-10T06:38:44.152Z,19.387512
2022-08-10T06:42:14.412Z,19.508362
2022-08-10T06:45:34.731Z,19.548645
2022-08-10T06:48:59.945Z,19.649353
2022-08-10T06:52:25.205Z,19.729919
2022-08-10T06:55:55.752Z,19.780273
2022-08-10T06:59:21.656Z,19.86084
2022-08-10T07:02:41.055Z,19.870911
2022-08-10T07:06:06.358Z,19.880981
2022-08-10T07:09:31.689Z,19.840698
2022-08-10T07:12:56.987Z,19.689636
2022-08-10T07:16:22.296Z,19.659424
2022-08-10T07:20:05.585Z,19.679565
2022-08-10T07:23:56.425Z,19.729919
2022-08-10T07:27:59.450Z,19.800415
2022-08-10T07:31:29.825Z,19.870911
2022-08-10T07:35:07.838Z,19.981689
2022-08-10T07:38:54.067Z,20.062256
2022-08-10T07:42:46.436Z,20.183105
2022-08-10T07:46:16.738Z,20.384521
2022-08-10T07:50:24.530Z,20.535583
2022-08-10T07:55:03.008Z,20.757141
2022-08-10T07:59:55.550Z,20.877991
2022-08-10T08:04:06.170Z,20.978699
2022-08-10T08:07:27.750Z,20.978699
2022-08-10T08:10:53.038Z,20.98877
2022-08-10T08:14:18.335Z,21.008911
2022-08-10T08:17:43.640Z,21.069336
2022-08-10T08:24:03.179Z,21.139832
2022-08-10T08:25:16.149Z,21.220398
2022-08-10T08:28:52.804Z,21.25061
2022-08-10T08:32:50.119Z,21.270752
2022-08-10T08:36:15.327Z,21.280823
2022-08-10T08:39:40.689Z,21.321106
2022-08-10T08:43:05.945Z,21.401672
2022-08-10T08:46:31.231Z,21.351318
2022-08-10T08:50:05.445Z,21.381531
2022-08-10T08:53:22.725Z,21.441956
2022-08-10T08:56:50.254Z,21.50238
2022-08-10T09:00:12.653Z,21.562805
2022-08-10T09:03:37.754Z,21.613159
2022-08-10T09:07:03.043Z,21.643372
2022-08-10T09:10:28.302Z,21.713867
2022-08-10T09:13:53.603Z,21.723938
2022-08-10T09:17:18.920Z,21.683655
2022-08-10T09:20:44.210Z,21.683655
2022-08-10T09:24:09.500Z,21.74408
2022-08-10T09:27:35.165Z,21.794434
2022-08-10T09:31:23.574Z,21.834717
2022-08-10T09:36:18.489Z,21.844788
2022-08-10T09:38:01.535Z,21.723938
2022-08-10T09:41:16.094Z,21.74408
2022-08-10T09:44:57.226Z,21.75415
2022-08-10T09:48:06.656Z,21.915283
2022-08-10T09:51:45.154Z,22.116699
2022-08-10T09:54:57.271Z,22.217407
2022-08-10T09:58:22.633Z,22.308044
2022-08-10T10:01:58.430Z,22.539673
2022-08-10T10:05:13.252Z,22.801514
2022-08-10T10:08:42.295Z,22.851868
2022-08-10T10:12:26.629Z,22.771301
2022-08-10T10:15:52.031Z,22.801514
2022-08-10T10:19:17.334Z,22.831726
2022-08-10T10:22:43.421Z,23.00293
2022-08-10T10:26:16.035Z,23.093567
2022-08-10T10:29:57.784Z,23.123779
2022-08-10T10:33:04.409Z,23.174133
2022-08-10T10:36:29.722Z,23.224487
2022-08-10T10:39:55.068Z,23.355408
2022-08-10T10:43:20.342Z,23.657532
2022-08-10T10:46:45.862Z,23.778381
2022-08-10T10:50:10.951Z,23.677673
2022-08-10T10:53:36.265Z,23.456116
2022-08-10T10:57:01.583Z,23.284912
2022-08-10T11:00:26.897Z,23.153992
2022-08-10T11:03:55.173Z,23.053284
2022-08-10T11:07:22.917Z,23.00293
2022-08-10T11:10:47.914Z,23.073425
2022-08-10T11:14:24.319Z,23.13385
2022-08-10T11:17:38.443Z,23.234558
2022-08-10T11:21:03.761Z,23.305054
2022-08-10T11:24:43.283Z,23.315125
2022-08-10T11:27:54.328Z,23.325195
2022-08-10T11:31:19.607Z,23.496399
2022-08-10T11:35:10.747Z,23.466187
2022-08-10T11:38:30.130Z,23.345337
2022-08-10T11:42:05.879Z,23.234558
2022-08-10T11:45:19.833Z,23.164062
2022-08-10T11:48:52.617Z,23.073425
2022-08-10T11:52:16.164Z,23.00293
2022-08-10T11:55:41.700Z,22.942505
2022-08-10T11:59:10.104Z,22.902222
2022-08-10T12:02:32.452Z,22.942505
2022-08-10T12:05:57.722Z,22.942505
2022-08-10T12:10:08.215Z,23.00293
2022-08-10T12:12:48.367Z,23.013
2022-08-10T12:16:13.706Z,23.00293
2022-08-10T12:19:58.900Z,22.982788
2022-08-10T12:23:04.303Z,23.103638
2022-08-10T12:26:29.621Z,23.284912
2022-08-10T12:29:54.935Z,23.38562
2022-08-10T12:33:20.239Z,23.375549
2022-08-10T12:36:45.545Z,23.325195
2022-08-10T12:40:34.301Z,23.284912
2022-08-10T12:44:04.145Z,23.224487
2022-08-10T12:47:01.478Z,23.164062
2022-08-10T12:50:26.785Z,23.164062
2022-08-10T12:53:52.070Z,23.174133
2022-08-10T12:57:17.991Z,23.274841
2022-08-10T13:00:59.745Z,23.204346
2022-08-10T13:04:20.293Z,23.13385
2022-08-10T13:08:03.456Z,23.103638
2022-08-10T13:11:03.336Z,23.053284
2022-08-10T13:14:29.420Z,23.053284
2022-08-10T13:17:55.465Z,23.053284
2022-08-10T13:21:21.465Z,23.13385
2022-08-10T13:24:47.163Z,23.164062
2022-08-10T13:28:36.744Z,23.194275
2022-08-10T13:32:03.486Z,23.345337
2022-08-10T13:35:04.346Z,23.576965
2022-08-10T13:38:29.837Z,23.677673
2022-08-10T13:41:55.337Z,23.597107
2022-08-10T13:45:21.846Z,23.566895
2022-08-10T13:48:47.373Z,23.476257
2022-08-10T13:52:12.684Z,23.345337
2022-08-10T13:55:45.887Z,23.284912
2022-08-10T13:59:06.685Z,23.274841
2022-08-10T14:02:28.502Z,23.224487
2022-08-10T14:05:53.768Z,23.204346
2022-08-10T14:09:19.061Z,23.355408
2022-08-10T14:12:44.584Z,23.50647
2022-08-10T14:16:09.641Z,23.697815
2022-08-10T14:19:34.929Z,23.657532
2022-08-10T14:23:00.219Z,23.566895
2022-08-10T14:26:25.492Z,23.50647
2022-08-10T15:03:58.247Z,24.080505
2022-08-10T15:07:12.034Z,24.130859
2022-08-10T15:10:32.857Z,24.211426
2022-08-10T15:14:15.029Z,24.060364
2022-08-10T15:17:23.434Z,23.869019
2022-08-10T15:20:51.606Z,23.697815
2022-08-10T15:24:13.964Z,23.607178
2022-08-10T15:27:54.088Z,23.536682
2022-08-10T15:31:04.554Z,23.456116
2022-08-10T15:34:29.841Z,23.38562
2022-08-10T15:37:55.234Z,23.325195
2022-08-10T15:41:20.528Z,23.274841
2022-08-10T15:44:45.744Z,23.194275
2022-08-10T15:48:11.052Z,23.13385
2022-08-10T15:51:53.297Z,23.093567
2022-08-10T15:55:01.658Z,23.013
2022-08-10T15:58:38.806Z,23.013
2022-08-10T16:02:05.014Z,23.00293
2022-08-10T16:05:17.602Z,22.982788
2022-08-10T16:08:50.330Z,23.00293
2022-08-10T16:12:09.729Z,23.043213
2022-08-10T16:15:35.538Z,23.053284
2022-08-10T16:19:00.864Z,23.123779
2022-08-10T16:22:34.738Z,23.174133
2022-08-10T16:25:52.803Z,23.164062
2022-08-10T16:29:16.895Z,23.053284
2022-08-10T16:32:42.279Z,23.00293
2022-08-10T16:36:07.641Z,23.023071
2022-08-10T16:39:57.365Z,23.13385
2022-08-10T16:42:58.272Z,23.174133
2022-08-10T16:46:23.632Z,23.224487
2022-08-10T16:49:48.972Z,23.234558
2022-08-10T16:53:14.261Z,23.2547
2022-08-10T16:56:48.526Z,23.224487
2022-08-10T17:00:04.894Z,23.234558
2022-08-10T17:04:05.959Z,23.164062
2022-08-10T17:06:56.543Z,23.043213
2022-08-10T17:10:21.148Z,22.952576
2022-08-10T17:13:46.849Z,22.902222
2022-08-10T17:17:18.065Z,22.801514
2022-08-10T17:20:48.231Z,22.75116
2022-08-10T17:24:14.245Z,22.650452
2022-08-10T17:28:03.319Z,22.549744
2022-08-10T17:31:04.860Z,22.459106
2022-08-10T17:34:30.139Z,22.388611
2022-08-10T17:37:55.539Z,22.297974
2022-08-10T17:41:20.828Z,22.237549
2022-08-10T17:44:46.152Z,22.116699
2022-08-10T17:48:11.588Z,22.086487
2022-08-10T17:51:36.928Z,22.066345
2022-08-10T17:55:02.371Z,22.026062
2022-08-10T17:58:27.726Z,21.985779
2022-08-10T18:01:58.296Z,21.975708
2022-08-10T18:05:18.328Z,21.975708
2022-08-10T18:08:43.603Z,21.975708
2022-08-10T18:12:10.248Z,21.955566
2022-08-10T18:15:34.238Z,21.935425
2022-08-10T18:19:00.455Z,21.875
2022-08-10T18:22:24.987Z,21.824646
2022-08-10T18:25:50.271Z,21.774292
2022-08-10T18:29:16.056Z,21.723938
2022-08-10T18:32:40.968Z,21.683655
2022-08-10T18:36:06.325Z,21.643372
2022-08-10T18:39:31.724Z,21.613159
2022-08-10T18:42:56.988Z,21.582947
2022-08-10T18:46:22.361Z,21.50238
2022-08-10T18:49:47.731Z,21.462097
2022-08-10T18:53:13.034Z,21.381531
2022-08-10T18:56:38.379Z,21.311035
2022-08-10T19:00:08.496Z,21.220398
2022-08-10T19:03:29.040Z,21.190186
2022-08-10T19:06:54.410Z,21.129761
2022-08-10T19:10:19.741Z,21.059265
2022-08-10T19:13:49.035Z,20.948486
2022-08-10T19:17:10.401Z,20.877991
2022-08-10T19:20:35.743Z,20.726929
2022-08-10T19:24:01.130Z,20.606079
2022-08-10T19:27:26.486Z,20.4953
2022-08-10T19:30:51.805Z,20.475159
2022-08-10T19:34:17.128Z,20.465088
2022-08-10T19:37:42.439Z,20.424805
2022-08-10T19:41:09.777Z,20.424805
2022-08-10T19:44:33.097Z,20.394592
2022-08-10T19:47:58.471Z,20.354309
2022-08-10T19:51:23.749Z,20.314026
2022-08-10T19:54:49.056Z,20.24353
2022-08-10T19:58:14.337Z,20.24353
2022-08-10T20:01:52.942Z,20.24353
2022-08-10T20:05:04.936Z,20.213318
2022-08-10T20:08:30.216Z,20.102539
2022-08-10T20:11:55.512Z,19.870911
2022-08-10T20:15:20.786Z,19.60907
2022-08-10T20:18:46.090Z,19.387512
2022-08-10T20:22:11.387Z,19.256592
2022-08-10T20:25:36.713Z,19.226379
2022-08-10T20:29:01.983Z,19.095459
2022-08-10T20:32:27.278Z,18.924255
2022-08-10T20:35:52.574Z,18.652344
2022-08-10T20:39:17.966Z,18.471069
2022-08-10T20:42:43.195Z,18.420715
2022-08-10T20:46:09.346Z,18.370361
2022-08-10T20:49:33.805Z,18.320007
2022-08-10T20:52:59.082Z,18.320007
2022-08-10T20:56:24.387Z,18.320007
2022-08-10T21:00:02.701Z,18.299866
2022-08-10T21:03:16.038Z,18.269653
2022-08-10T21:06:43.957Z,18.259583
2022-08-10T21:10:05.590Z,18.138733
2022-08-10T21:13:30.865Z,18.068237
2022-08-10T21:16:56.179Z,17.927246
2022-08-10T21:20:28.605Z,17.897034
2022-08-10T21:23:46.776Z,17.917175
2022-08-10T21:27:13.187Z,17.917175
2022-08-10T21:30:37.345Z,17.866821
2022-08-10T21:34:02.618Z,17.927246
2022-08-10T21:37:34.106Z,17.957458
2022-08-10T21:40:54.078Z,18.017883
2022-08-10T21:44:18.539Z,18.017883
2022-08-10T21:48:06.733Z,18.017883
2022-08-10T21:51:09.111Z,17.967529
2022-08-10T21:54:34.420Z,17.816467
2022-08-10T21:57:59.673Z,17.675476
2022-08-10T22:01:39.041Z,17.433777
2022-08-10T22:04:50.214Z,17.232361
2022-08-10T22:08:15.476Z,17.061157
2022-08-10T22:11:40.759Z,16.879883
2022-08-10T22:15:06.065Z,16.829529
2022-08-10T22:18:31.852Z,16.698608
2022-08-10T22:21:56.597Z,16.658325
2022-08-10T22:25:21.852Z,16.638184
2022-08-10T22:28:47.685Z,16.5979
2022-08-10T22:32:12.373Z,16.577759
2022-08-10T22:35:37.923Z,16.527405
2022-08-10T22:39:02.813Z,16.477051
2022-08-10T22:42:28.040Z,16.497192
2022-08-10T22:45:53.267Z,16.477051
2022-08-10T22:49:18.482Z,16.426697
2022-08-10T22:52:57.190Z,16.376343
2022-08-10T22:56:08.922Z,16.376343
2022-08-10T22:59:34.154Z,16.33606
2022-08-10T23:02:59.419Z,16.305847
2022-08-10T23:06:24.639Z,16.376343
2022-08-10T23:09:49.899Z,16.406555
2022-08-10T23:13:23.563Z,16.426697
2022-08-10T23:16:40.394Z,16.477051
2022-08-10T23:20:05.641Z,16.487122
2022-08-10T23:23:30.892Z,16.487122
2022-08-10T23:26:56.147Z,16.456909
2022-08-10T23:30:21.407Z,16.456909
2022-08-10T23:33:46.656Z,16.406555
2022-08-10T23:37:11.908Z,16.34613
2022-08-10T23:40:37.149Z,16.245422
2022-08-10T23:44:04.429Z,16.205139
2022-08-10T23:47:27.635Z,16.195068
2022-08-10T23:50:53.430Z,16.174927
2022-08-10T23:54:18.126Z,16.144714
2022-08-10T23:57:43.394Z,16.114502
